Time;durP1;ratioP1;P1;durP2;ratioP2;P2;SDS_P1;SDS_P2;PMS_P1;PMS_P2;Temp;Humidity;BMP_temperature;BMP_pressure;BME280_temperature;BME280_humidity;BME280_pressure;Samples;Min_cycle;Max_cycle;Signal;HPM_P1;HPM_P2
2023/09/04 00:01:42;;;;;;;5.18;4.78;;;;;;;;;;5036912;28;20046;-76
2023/09/04 00:04:07;;;;;;;5.43;4.93;;;;;;;;;;5039912;28;20072;-74
2023/09/04 00:06:33;;;;;;;5.07;4.68;;;;;;;;;;5039337;28;20395;-74
2023/09/04 00:09:01;;;;;;;5.07;4.60;;;;;;;;;;5037425;28;20029;-73
2023/09/04 00:11:27;;;;;;;5.13;4.55;;;;;;;;;;5039978;28;20412;-74
2023/09/04 00:13:52;;;;;;;4.57;4.18;;;;;;;;;;5039786;28;20032;-73
2023/09/04 00:16:18;;;;;;;4.63;4.22;;;;;;;;;;5039272;28;20371;-74
2023/09/04 00:18:43;;;;;;;4.72;4.43;;;;;;;;;;5038506;28;20040;-73
2023/09/04 00:21:08;;;;;;;6.63;4.50;;;;;;;;;;5035784;28;20079;-73
2023/09/04 00:23:34;;;;;;;5.10;3.85;;;;;;;;;;5029458;28;20033;-73
2023/09/04 00:25:59;;;;;;;5.35;4.85;;;;;;;;;;5037767;28;20383;-74
2023/09/04 00:28:25;;;;;;;5.03;4.57;;;;;;;;;;5038994;28;20024;-73
2023/09/04 00:30:53;;;;;;;4.53;4.13;;;;;;;;;;5031251;28;20454;-75
2023/09/04 00:33:18;;;;;;;4.40;4.00;;;;;;;;;;5028409;28;20265;-73
2023/09/04 00:35:44;;;;;;;4.40;4.03;;;;;;;;;;5036932;28;20515;-73
2023/09/04 00:38:09;;;;;;;4.25;3.95;;;;;;;;;;5037978;28;20108;-72
2023/09/04 00:40:35;;;;;;;4.95;4.55;;;;;;;;;;5038514;28;20448;-75
2023/09/04 00:43:00;;;;;;;4.13;3.83;;;;;;;;;;5037374;28;20037;-73
2023/09/04 00:45:25;;;;;;;4.50;3.90;;;;;;;;;;5036603;28;20090;-72
2023/09/04 00:47:51;;;;;;;5.15;4.47;;;;;;;;;;5037459;28;20113;-74
2023/09/04 00:50:21;;;;;;;4.90;4.50;;;;;;;;;;5038011;28;20083;-73
2023/09/04 00:52:46;;;;;;;5.25;4.72;;;;;;;;;;5036242;28;20028;-75
2023/09/04 00:55:12;;;;;;;5.90;5.40;;;;;;;;;;5040574;28;20126;-74
2023/09/04 00:57:38;;;;;;;4.93;4.47;;;;;;;;;;5038275;28;20021;-75
2023/09/04 01:00:12;;;;;;;5.82;5.03;;;;;;;;;;5038350;28;20052;-76
2023/09/04 01:02:38;;;;;;;5.25;4.75;;;;;;;;;;5036188;28;20039;-78
2023/09/04 01:05:04;;;;;;;5.53;5.03;;;;;;;;;;5036519;28;20029;-75
2023/09/04 01:07:30;;;;;;;4.85;4.53;;;;;;;;;;5038010;28;20578;-75
2023/09/04 01:09:55;;;;;;;7.40;6.78;;;;;;;;;;5036538;28;20071;-74
2023/09/04 01:12:22;;;;;;;5.55;5.00;;;;;;;;;;5037850;28;20040;-77
2023/09/04 01:14:48;;;;;;;5.03;4.63;;;;;;;;;;5036993;28;20076;-77
2023/09/04 01:17:14;;;;;;;4.15;3.72;;;;;;;;;;5030701;28;20438;-76
2023/09/04 01:19:40;;;;;;;4.55;4.15;;;;;;;;;;5033488;28;20021;-75
2023/09/04 01:22:06;;;;;;;4.82;4.43;;;;;;;;;;5035920;28;20024;-74
2023/09/04 01:24:32;;;;;;;4.57;4.15;;;;;;;;;;5036360;28;20033;-76
2023/09/04 01:27:04;;;;;;;5.72;4.43;;;;;;;;;;5037864;28;20044;-76
2023/09/04 01:29:37;;;;;;;7.65;5.95;;;;;;;;;;5037147;28;21181;-76
2023/09/04 01:32:09;;;;;;;8.35;6.30;;;;;;;;;;5035977;28;20360;-76
2023/09/04 01:34:36;;;;;;;14.38;6.60;;;;;;;;;;5038868;28;20095;-76
2023/09/04 01:37:02;;;;;;;11.63;6.57;;;;;;;;;;5036380;28;20017;-76
2023/09/04 01:39:27;;;;;;;7.28;5.38;;;;;;;;;;5036715;28;21060;-72
2023/09/04 01:41:53;;;;;;;7.00;5.00;;;;;;;;;;5035253;28;20021;-75
2023/09/04 01:44:19;;;;;;;6.15;4.45;;;;;;;;;;5024042;28;20022;-76
2023/09/04 01:46:44;;;;;;;6.97;4.55;;;;;;;;;;5033246;28;20017;-75
2023/09/04 01:49:09;;;;;;;5.35;4.00;;;;;;;;;;5035412;28;20356;-76
2023/09/04 01:51:34;;;;;;;5.00;3.60;;;;;;;;;;5038258;28;20017;-75
2023/09/04 01:54:00;;;;;;;4.07;3.15;;;;;;;;;;5037053;28;20037;-76
2023/09/04 01:56:25;;;;;;;2.92;2.63;;;;;;;;;;5027484;28;20037;-76
2023/09/04 01:58:51;;;;;;;2.50;2.30;;;;;;;;;;5037867;28;20028;-76
2023/09/04 02:01:16;;;;;;;2.28;2.08;;;;;;;;;;5038177;28;20025;-76
2023/09/04 02:03:52;;;;;;;2.92;2.30;;;;;;;;;;5032874;28;20351;-75
2023/09/04 02:06:17;;;;;;;3.03;2.10;;;;;;;;;;5030499;28;20029;-76
2023/09/04 02:08:45;;;;;;;1.98;1.88;;;;;;;;;;5035180;28;20035;-75
2023/09/04 02:11:10;;;;;;;1.90;1.80;;;;;;;;;;5037570;28;20092;-76
2023/09/04 02:13:35;;;;;;;1.90;1.80;;;;;;;;;;5036121;28;20032;-75
2023/09/04 02:16:01;;;;;;;2.17;1.73;;;;;;;;;;5034892;28;20356;-76
2023/09/04 02:18:27;;;;;;;2.17;1.85;;;;;;;;;;5037001;28;20033;-75
2023/09/04 02:20:52;;;;;;;1.77;1.67;;;;;;;;;;5036875;28;20021;-75
2023/09/04 02:23:18;;;;;;;2.03;1.90;;;;;;;;;;5036317;28;20141;-75
2023/09/04 02:25:45;;;;;;;1.75;1.65;;;;;;;;;;5037175;28;20048;-76
2023/09/04 02:28:11;;;;;;;1.95;1.85;;;;;;;;;;5034156;28;20047;-78
2023/09/04 02:30:39;;;;;;;2.33;2.13;;;;;;;;;;5035991;28;20029;-76
2023/09/04 02:33:05;;;;;;;2.08;1.98;;;;;;;;;;5037550;28;20103;-76
2023/09/04 02:35:30;;;;;;;2.30;2.10;;;;;;;;;;5036166;28;20567;-77
2023/09/04 02:37:55;;;;;;;3.55;2.40;;;;;;;;;;5028991;28;20025;-75
2023/09/04 02:40:21;;;;;;;2.40;2.20;;;;;;;;;;5032067;28;20024;-77
2023/09/04 02:42:46;;;;;;;2.50;2.33;;;;;;;;;;5034610;28;20060;-77
2023/09/04 02:45:12;;;;;;;2.38;2.17;;;;;;;;;;5033721;28;20378;-77
2023/09/04 02:47:37;;;;;;;2.50;2.30;;;;;;;;;;5034650;28;20136;-76
2023/09/04 02:50:04;;;;;;;2.60;2.40;;;;;;;;;;5030659;28;20042;-75
2023/09/04 02:52:30;;;;;;;2.58;2.30;;;;;;;;;;5029344;28;20755;-76
2023/09/04 02:54:55;;;;;;;5.82;3.25;;;;;;;;;;5035612;28;20033;-76
2023/09/04 02:57:22;;;;;;;4.75;2.75;;;;;;;;;;5035427;28;20448;-76
2023/09/04 02:59:47;;;;;;;3.10;2.90;;;;;;;;;;5036451;28;20078;-74
2023/09/04 03:02:12;;;;;;;3.30;3.03;;;;;;;;;;5040356;28;20029;-75
2023/09/04 03:04:38;;;;;;;3.38;2.90;;;;;;;;;;5040509;28;20032;-74
2023/09/04 03:07:03;;;;;;;3.90;3.25;;;;;;;;;;5038040;28;20025;-75
2023/09/04 03:09:31;;;;;;;3.40;3.10;;;;;;;;;;5039574;28;20140;-75
2023/09/04 03:11:57;;;;;;;3.20;3.00;;;;;;;;;;5037623;28;20055;-77
2023/09/04 03:14:22;;;;;;;3.25;3.05;;;;;;;;;;5039504;28;20064;-76
2023/09/04 03:16:48;;;;;;;3.30;3.00;;;;;;;;;;5038017;28;20047;-76
2023/09/04 03:19:13;;;;;;;3.40;3.10;;;;;;;;;;5040918;28;20095;-76
2023/09/04 03:21:38;;;;;;;3.97;2.97;;;;;;;;;;5039366;28;20033;-76
2023/09/04 03:24:04;;;;;;;3.00;2.80;;;;;;;;;;5040122;28;20031;-75
2023/09/04 03:26:29;;;;;;;3.28;3.00;;;;;;;;;;5039116;28;20036;-76
2023/09/04 03:28:55;;;;;;;3.50;3.30;;;;;;;;;;5040160;28;20017;-76
2023/09/04 03:31:20;;;;;;;3.72;3.42;;;;;;;;;;5040097;28;20056;-76
2023/09/04 03:33:45;;;;;;;3.90;3.60;;;;;;;;;;5038903;28;20041;-76
2023/09/04 03:36:11;;;;;;;3.85;3.47;;;;;;;;;;5032051;28;20675;-75
2023/09/04 03:38:38;;;;;;;4.05;3.65;;;;;;;;;;5036439;28;20040;-75
2023/09/04 03:41:03;;;;;;;3.95;3.65;;;;;;;;;;5041024;28;20067;-74
2023/09/04 03:43:29;;;;;;;3.90;3.60;;;;;;;;;;5039904;28;20055;-74
2023/09/04 03:45:54;;;;;;;3.83;3.50;;;;;;;;;;5030556;28;20021;-76
2023/09/04 03:48:20;;;;;;;4.55;4.15;;;;;;;;;;5025239;28;21042;-76
2023/09/04 03:50:45;;;;;;;4.20;3.90;;;;;;;;;;5026759;28;20021;-76
2023/09/04 03:53:10;;;;;;;3.65;3.35;;;;;;;;;;5026446;28;20049;-76
2023/09/04 03:55:36;;;;;;;4.43;4.03;;;;;;;;;;5027363;28;20116;-77
2023/09/04 03:58:03;;;;;;;3.85;3.55;;;;;;;;;;5026462;28;20029;-77
2023/09/04 04:00:30;;;;;;;6.65;3.60;;;;;;;;;;5028012;28;20032;-76
2023/09/04 04:02:55;;;;;;;4.32;3.92;;;;;;;;;;5025569;28;20032;-77
2023/09/04 04:05:20;;;;;;;5.43;4.00;;;;;;;;;;5027516;28;20028;-76
2023/09/04 04:07:46;;;;;;;4.80;4.40;;;;;;;;;;5032471;28;20082;-77
2023/09/04 04:10:11;;;;;;;4.45;4.15;;;;;;;;;;5031218;28;20029;-76
2023/09/04 04:12:36;;;;;;;6.30;4.78;;;;;;;;;;5033344;28;20055;-76
2023/09/04 04:15:06;;;;;;;4.95;4.43;;;;;;;;;;5038669;28;20363;-77
2023/09/04 04:17:34;;;;;;;6.63;4.47;;;;;;;;;;5036615;28;20032;-75
2023/09/04 04:20:00;;;;;;;5.10;4.60;;;;;;;;;;5016336;28;20043;-73
2023/09/04 04:22:25;;;;;;;5.45;4.95;;;;;;;;;;5028175;28;20017;-74
2023/09/04 04:24:50;;;;;;;5.63;5.22;;;;;;;;;;5026988;28;20095;-74
2023/09/04 04:27:16;;;;;;;5.60;5.20;;;;;;;;;;5024534;28;20032;-74
2023/09/04 04:29:45;;;;;;;5.30;4.93;;;;;;;;;;5026449;28;20135;-73
2023/09/04 04:32:10;;;;;;;10.75;9.57;;;;;;;;;;5026275;28;20022;-75
2023/09/04 04:34:36;;;;;;;13.80;10.25;;;;;;;;;;5028608;28;20907;-75
2023/09/04 04:37:01;;;;;;;7.38;6.78;;;;;;;;;;5003866;28;20489;-76
2023/09/04 04:39:26;;;;;;;7.45;6.75;;;;;;;;;;5026120;28;20531;-74
2023/09/04 04:41:53;;;;;;;7.93;7.13;;;;;;;;;;5025191;28;20083;-77
2023/09/04 04:44:18;;;;;;;8.27;6.50;;;;;;;;;;5031477;28;20033;-76
2023/09/04 04:46:45;;;;;;;6.68;6.07;;;;;;;;;;5037158;28;20029;-74
2023/09/04 04:49:11;;;;;;;6.85;6.25;;;;;;;;;;5032440;28;20081;-76
2023/09/04 04:51:36;;;;;;;7.18;6.53;;;;;;;;;;5030806;28;20444;-75
2023/09/04 04:54:02;;;;;;;7.75;6.90;;;;;;;;;;5025454;28;20051;-75
2023/09/04 04:56:27;;;;;;;7.63;7.03;;;;;;;;;;5026393;28;20032;-75
2023/09/04 04:58:53;;;;;;;8.18;7.38;;;;;;;;;;5028580;28;20033;-75
2023/09/04 05:01:18;;;;;;;8.30;7.50;;;;;;;;;;5023231;28;20028;-75
2023/09/04 05:03:44;;;;;;;8.20;7.57;;;;;;;;;;5019054;28;20065;-77
2023/09/04 05:06:09;;;;;;;7.45;6.85;;;;;;;;;;5017857;28;20025;-75
2023/09/04 05:08:34;;;;;;;8.63;7.93;;;;;;;;;;5019760;28;20025;-73
2023/09/04 05:11:02;;;;;;;8.52;7.82;;;;;;;;;;5019541;28;20125;-76
2023/09/04 05:13:28;;;;;;;8.73;8.10;;;;;;;;;;5023893;28;20045;-75
2023/09/04 05:15:53;;;;;;;7.90;7.20;;;;;;;;;;5020970;28;20027;-74
2023/09/04 05:18:19;;;;;;;9.70;8.80;;;;;;;;;;5031693;28;20075;-75
2023/09/04 05:20:44;;;;;;;9.10;8.40;;;;;;;;;;5026288;28;20070;-74
2023/09/04 05:23:09;;;;;;;9.95;9.15;;;;;;;;;;5036747;28;20443;-74
2023/09/04 05:25:35;;;;;;;9.75;8.85;;;;;;;;;;5032801;28;20952;-76
2023/09/04 05:28:00;;;;;;;10.00;9.20;;;;;;;;;;5035013;28;20078;-74
2023/09/04 05:30:25;;;;;;;10.00;9.20;;;;;;;;;;5029122;28;20033;-74
2023/09/04 05:32:52;;;;;;;11.13;10.13;;;;;;;;;;5030902;28;20141;-74
2023/09/04 05:35:17;;;;;;;10.00;9.15;;;;;;;;;;5036962;28;20031;-74
2023/09/04 05:37:43;;;;;;;10.20;9.40;;;;;;;;;;5034407;28;20021;-77
2023/09/04 05:40:08;;;;;;;10.80;9.82;;;;;;;;;;5037174;28;20087;-75
2023/09/04 05:42:34;;;;;;;11.60;10.45;;;;;;;;;;5036564;28;20033;-74
2023/09/04 05:44:59;;;;;;;10.57;9.68;;;;;;;;;;5026409;28;20020;-75
2023/09/04 05:47:25;;;;;;;11.00;10.07;;;;;;;;;;5025472;28;20659;-75
2023/09/04 05:49:50;;;;;;;10.50;9.70;;;;;;;;;;5033968;28;20045;-73
2023/09/04 05:52:15;;;;;;;11.00;10.13;;;;;;;;;;5034894;28;20025;-72
2023/09/04 05:54:41;;;;;;;11.68;10.77;;;;;;;;;;5034546;28;20040;-71
2023/09/04 05:57:06;;;;;;;11.23;10.32;;;;;;;;;;5036689;28;20031;-71
2023/09/04 05:59:31;;;;;;;11.20;10.40;;;;;;;;;;5037171;28;20428;-73
2023/09/04 06:01:57;;;;;;;12.18;11.20;;;;;;;;;;5036497;28;20028;-75
2023/09/04 06:04:22;;;;;;;12.07;11.07;;;;;;;;;;5036911;28;20033;-74
2023/09/04 06:06:47;;;;;;;11.25;10.35;;;;;;;;;;5036248;28;20108;-73
2023/09/04 06:09:13;;;;;;;11.45;10.55;;;;;;;;;;5037361;28;20611;-74
2023/09/04 06:11:38;;;;;;;12.65;11.48;;;;;;;;;;5033862;28;20029;-74
2023/09/04 06:14:03;;;;;;;12.18;11.00;;;;;;;;;;5036409;28;20033;-73
2023/09/04 06:16:29;;;;;;;12.60;11.57;;;;;;;;;;5036485;28;20025;-74
2023/09/04 06:18:54;;;;;;;13.18;12.05;;;;;;;;;;5037212;28;20040;-73
2023/09/04 06:21:19;;;;;;;13.27;12.18;;;;;;;;;;5035831;28;20037;-73
2023/09/04 06:23:45;;;;;;;13.13;12.02;;;;;;;;;;5035222;28;20079;-71
2023/09/04 06:26:10;;;;;;;14.13;12.93;;;;;;;;;;5035098;28;20082;-73
2023/09/04 06:28:36;;;;;;;13.20;12.05;;;;;;;;;;5033249;28;20056;-73
2023/09/04 06:31:01;;;;;;;13.75;12.48;;;;;;;;;;5037566;28;20028;-74
2023/09/04 06:33:26;;;;;;;14.60;13.15;;;;;;;;;;5037603;28;20094;-74
2023/09/04 06:35:53;;;;;;;13.50;12.30;;;;;;;;;;5040097;28;20037;-74
2023/09/04 06:38:18;;;;;;;15.07;13.65;;;;;;;;;;5039789;28;20489;-73
2023/09/04 06:40:43;;;;;;;14.85;13.55;;;;;;;;;;5039525;28;20143;-72
2023/09/04 06:43:09;;;;;;;14.38;13.13;;;;;;;;;;5041584;28;20147;-74
2023/09/04 06:45:37;;;;;;;14.30;13.10;;;;;;;;;;5039429;28;20086;-75
2023/09/04 06:48:03;;;;;;;15.27;13.88;;;;;;;;;;5039797;28;20086;-76
2023/09/04 06:50:28;;;;;;;15.52;14.02;;;;;;;;;;5041196;28;20436;-74
2023/09/04 06:52:53;;;;;;;15.13;13.82;;;;;;;;;;5041527;28;20407;-76
2023/09/04 06:55:18;;;;;;;16.00;14.70;;;;;;;;;;5039449;28;20376;-74
2023/09/04 06:57:44;;;;;;;14.20;12.93;;;;;;;;;;5040649;28;20025;-75
2023/09/04 07:00:10;;;;;;;14.05;12.90;;;;;;;;;;5037899;28;20106;-74
2023/09/04 07:02:36;;;;;;;14.23;13.02;;;;;;;;;;5038075;28;20558;-75
2023/09/04 07:05:02;;;;;;;15.25;13.95;;;;;;;;;;5041837;28;20119;-75
2023/09/04 07:07:28;;;;;;;15.68;14.27;;;;;;;;;;5037901;28;20037;-75
2023/09/04 07:09:53;;;;;;;14.85;13.45;;;;;;;;;;5039961;28;20033;-74
2023/09/04 07:12:18;;;;;;;15.18;12.68;;;;;;;;;;5037918;28;20063;-75
2023/09/04 07:14:44;;;;;;;15.02;13.63;;;;;;;;;;5038456;28;20036;-75
2023/09/04 07:17:09;;;;;;;12.05;11.05;;;;;;;;;;5039295;28;20120;-74
2023/09/04 07:19:34;;;;;;;11.23;10.32;;;;;;;;;;5039148;28;20025;-75
2023/09/04 07:22:00;;;;;;;10.98;10.07;;;;;;;;;;5039004;28;20029;-75
2023/09/04 07:24:25;;;;;;;13.75;12.65;;;;;;;;;;5039246;28;20025;-74
2023/09/04 07:26:50;;;;;;;13.93;12.57;;;;;;;;;;5038698;28;20025;-77
2023/09/04 07:29:17;;;;;;;14.30;13.10;;;;;;;;;;5040638;28;20032;-74
2023/09/04 07:31:42;;;;;;;12.55;11.45;;;;;;;;;;5041443;28;20032;-74
2023/09/04 07:34:07;;;;;;;11.65;10.73;;;;;;;;;;5038968;28;20131;-76
2023/09/04 07:36:33;;;;;;;12.35;11.27;;;;;;;;;;5038621;28;20029;-74
2023/09/04 07:38:58;;;;;;;12.60;11.30;;;;;;;;;;5039321;28;20025;-74
2023/09/04 07:41:24;;;;;;;12.85;11.65;;;;;;;;;;5041332;28;20025;-74
2023/09/04 07:43:50;;;;;;;12.88;11.57;;;;;;;;;;5038749;28;20028;-74
2023/09/04 07:46:15;;;;;;;13.15;11.73;;;;;;;;;;5037793;28;20034;-74
2023/09/04 07:48:40;;;;;;;12.70;11.68;;;;;;;;;;5040132;28;20045;-75
2023/09/04 07:51:08;;;;;;;12.57;11.48;;;;;;;;;;5038648;28;20029;-75
2023/09/04 07:53:33;;;;;;;13.73;12.52;;;;;;;;;;5038358;28;20040;-75
2023/09/04 07:55:59;;;;;;;12.77;11.65;;;;;;;;;;5040458;28;20017;-75
2023/09/04 07:58:24;;;;;;;12.68;11.65;;;;;;;;;;5041307;28;20021;-74
2023/09/04 08:00:50;;;;;;;14.63;13.38;;;;;;;;;;5039089;28;20399;-75
2023/09/04 08:03:16;;;;;;;13.77;12.57;;;;;;;;;;5038772;28;20033;-76
2023/09/04 08:05:41;;;;;;;17.48;14.57;;;;;;;;;;5038027;28;20029;-75
2023/09/04 08:08:11;;;;;;;15.38;14.07;;;;;;;;;;5040860;28;20913;-75
2023/09/04 08:10:40;;;;;;;15.30;14.00;;;;;;;;;;5038899;28;20040;-75
2023/09/04 08:13:05;;;;;;;;;;;;;;;;;;5040173;28;20036;-76
2023/09/04 08:15:31;;;;;;;16.23;14.77;;;;;;;;;;5038703;28;19932;-76
2023/09/04 08:17:56;;;;;;;15.82;14.40;;;;;;;;;;5039988;28;20036;-76
2023/09/04 08:20:21;;;;;;;16.20;14.85;;;;;;;;;;5038563;28;20053;-76
2023/09/04 08:22:47;;;;;;;15.68;14.38;;;;;;;;;;5039943;28;20029;-76
2023/09/04 08:25:12;;;;;;;16.00;14.60;;;;;;;;;;5037364;28;20079;-76
2023/09/04 08:27:40;;;;;;;15.63;14.25;;;;;;;;;;5038722;28;20418;-76
2023/09/04 08:30:06;;;;;;;15.18;13.82;;;;;;;;;;5037810;28;20029;-75
2023/09/04 08:32:31;;;;;;;15.07;13.70;;;;;;;;;;5018641;28;20044;-75
2023/09/04 08:34:56;;;;;;;14.98;13.70;;;;;;;;;;5038713;28;20454;-76
2023/09/04 08:37:22;;;;;;;16.33;14.82;;;;;;;;;;5038838;28;20056;-78
2023/09/04 08:39:48;;;;;;;16.40;14.90;;;;;;;;;;5037067;28;20032;-75
2023/09/04 08:42:13;;;;;;;14.45;13.23;;;;;;;;;;5038860;28;20021;-76
2023/09/04 08:44:39;;;;;;;15.35;13.95;;;;;;;;;;5036321;28;20035;-75
2023/09/04 08:47:06;;;;;;;15.77;14.38;;;;;;;;;;5037922;28;20059;-75
2023/09/04 08:49:31;;;;;;;15.35;13.88;;;;;;;;;;5035986;28;20702;-76
2023/09/04 08:51:57;;;;;;;17.70;16.10;;;;;;;;;;5036508;28;20699;-75
2023/09/04 08:54:22;;;;;;;17.02;15.63;;;;;;;;;;5037183;28;20052;-74
2023/09/04 08:56:47;;;;;;;17.10;15.50;;;;;;;;;;5018236;28;20036;-75
2023/09/04 08:59:13;;;;;;;16.95;15.35;;;;;;;;;;5037353;28;20025;-75
2023/09/04 09:01:40;;;;;;;18.25;16.45;;;;;;;;;;5039451;28;20089;-75
2023/09/04 09:04:05;;;;;;;17.63;15.93;;;;;;;;;;5038842;28;20053;-75
2023/09/04 09:06:32;;;;;;;18.58;16.70;;;;;;;;;;5037547;28;20098;-74
2023/09/04 09:08:58;;;;;;;19.88;18.13;;;;;;;;;;5037896;28;20131;-76
2023/09/04 09:11:24;;;;;;;18.92;16.90;;;;;;;;;;5037947;28;20018;-75
2023/09/04 09:13:49;;;;;;;17.77;16.17;;;;;;;;;;5037137;28;20043;-76
2023/09/04 09:16:20;;;;;;;16.77;15.27;;;;;;;;;;5038405;28;20105;-76
2023/09/04 09:18:46;;;;;;;16.05;14.38;;;;;;;;;;5036888;28;20032;-76
2023/09/04 09:21:27;;;;;;;17.30;15.80;;;;;;;;;;5038804;28;20033;-75
2023/09/04 09:24:06;;;;;;;15.35;13.75;;;;;;;;;;5037986;28;20120;-76
2023/09/04 09:26:32;;;;;;;21.52;19.73;;;;;;;;;;5038059;28;20120;-75
2023/09/04 09:28:57;;;;;;;15.25;13.85;;;;;;;;;;5037929;28;20410;-76
2023/09/04 09:31:23;;;;;;;13.88;12.77;;;;;;;;;;5036216;28;20024;-76
2023/09/04 09:33:48;;;;;;;12.05;10.95;;;;;;;;;;5037909;28;20038;-76
2023/09/04 09:36:14;;;;;;;13.30;12.13;;;;;;;;;;5036444;28;20032;-76
2023/09/04 09:38:44;;;;;;;17.83;16.23;;;;;;;;;;5037239;28;20104;-77
2023/09/04 09:41:10;;;;;;;17.98;16.55;;;;;;;;;;5035181;28;20017;-75
2023/09/04 09:43:36;;;;;;;18.95;17.45;;;;;;;;;;5035666;28;20044;-75
2023/09/04 09:46:01;;;;;;;17.60;16.00;;;;;;;;;;5036055;28;20025;-75
2023/09/04 09:48:26;;;;;;;19.60;17.67;;;;;;;;;;5013112;28;20051;-74
2023/09/04 09:50:53;;;;;;;16.00;14.57;;;;;;;;;;5033807;28;20652;-76
2023/09/04 09:53:18;;;;;;;17.27;15.77;;;;;;;;;;5036173;28;20098;-76
2023/09/04 09:55:44;;;;;;;16.90;15.40;;;;;;;;;;5035523;28;20456;-76
2023/09/04 09:58:10;;;;;;;14.80;13.50;;;;;;;;;;5037849;28;20032;-76
2023/09/04 10:00:36;;;;;;;13.25;12.07;;;;;;;;;;5034964;28;20478;-76
2023/09/04 10:03:01;;;;;;;11.45;10.45;;;;;;;;;;5033907;28;20028;-77
2023/09/04 10:05:28;;;;;;;11.05;10.05;;;;;;;;;;5036126;28;20029;-75
2023/09/04 10:08:00;;;;;;;10.55;9.75;;;;;;;;;;5034989;28;20400;-74
2023/09/04 10:10:26;;;;;;;11.63;10.52;;;;;;;;;;5035933;28;20742;-75
2023/09/04 10:12:58;;;;;;;11.85;10.85;;;;;;;;;;5033955;28;20037;-75
2023/09/04 10:15:28;;;;;;;11.80;10.82;;;;;;;;;;5013176;28;20351;-76
2023/09/04 10:17:53;;;;;;;;;;;;;;;;;;5036069;28;20021;-77
2023/09/04 10:20:18;;;;;;;;;;;;;;;;;;5036336;28;19941;-77
2023/09/04 10:22:45;;;;;;;;;;;;;;;;;;5037048;28;19982;-77
2023/09/04 10:25:10;;;;;;;;;;;;;;;;;;5036485;28;19919;-76
2023/09/04 10:27:35;;;;;;;;;;;;;;;;;;5051765;28;19913;-75
2023/09/04 10:30:01;;;;;;;;;;;;;;;;;;5037862;28;19917;-76
2023/09/04 10:32:26;;;;;;;;;;;;;;;;;;5037480;28;20016;-74
2023/09/04 10:34:51;;;;;;;;;;;;;;;;;;5038038;28;19908;-74
2023/09/04 10:37:16;;;;;;;;;;;;;;;;;;5035023;28;20007;-75
2023/09/04 10:39:41;;;;;;;;;;;;;;;;;;5034449;28;19912;-77
2023/09/04 10:42:06;;;;;;;;;;;;;;;;;;5033607;28;19909;-76
2023/09/04 10:44:32;;;;;;;;;;;;;;;;;;5036070;28;19912;-75
2023/09/04 10:46:57;;;;;;;;;;;;;;;;;;5036378;28;20000;-76
2023/09/04 10:49:22;;;;;;;;;;;;;;;;;;5035711;28;20717;-77
2023/09/04 10:51:47;;;;;;;;;;;;;;;;;;5036244;28;19967;-76
2023/09/04 10:54:13;;;;;;;;;;;;;;;;;;5037182;28;20023;-74
2023/09/04 10:56:38;;;;;;;;;;;;;;;;;;5036642;28;20008;-75
2023/09/04 10:59:03;;;;;;;;;;;;;;;;;;5036323;28;19974;-75
2023/09/04 11:01:28;;;;;;;;;;;;;;;;;;5037011;28;20247;-75
2023/09/04 11:03:53;;;;;;;;;;;;;;;;;;5036286;28;19908;-75
2023/09/04 11:06:20;;;;;;;;;;;;;;;;;;5036446;28;19913;-74
2023/09/04 11:08:45;;;;;;;;;;;;;;;;;;5035786;28;19908;-76
2023/09/04 11:11:10;;;;;;;;;;;;;;;;;;5035216;28;19920;-76
2023/09/04 11:13:36;;;;;;;;;;;;;;;;;;5036606;28;20047;-76
2023/09/04 11:16:01;;;;;;;;;;;;;;;;;;5037632;28;19912;-75
2023/09/04 11:18:26;;;;;;;;;;;;;;;;;;5036659;28;19912;-78
2023/09/04 11:20:51;;;;;;;;;;;;;;;;;;5037531;28;20395;-74
2023/09/04 11:23:16;;;;;;;;;;;;;;;;;;5039012;28;19912;-75
2023/09/04 11:25:46;;;;;;;;;;;;;;;;;;5039147;28;19912;-75
2023/09/04 11:28:11;;;;;;;;;;;;;;;;;;5037446;28;19908;-77
2023/09/04 11:30:36;;;;;;;;;;;;;;;;;;5040224;28;19913;-77
2023/09/04 11:33:01;;;;;;;;;;;;;;;;;;5038847;28;20255;-77
2023/09/04 11:35:27;;;;;;;;;;;;;;;;;;5038972;28;19921;-75
2023/09/04 11:37:52;;;;;;;;;;;;;;;;;;5040029;28;19998;-76
2023/09/04 11:40:18;;;;;;;;;;;;;;;;;;5040447;28;19913;-75
2023/09/04 11:42:44;;;;;;;;;;;;;;;;;;5040188;28;19912;-76
2023/09/04 11:45:09;;;;;;;;;;;;;;;;;;5039798;28;20327;-76
2023/09/04 11:47:34;;;;;;;;;;;;;;;;;;5033382;28;20018;-76
2023/09/04 11:50:00;;;;;;;;;;;;;;;;;;5024831;28;19920;-76
2023/09/04 11:52:28;;;;;;;;;;;;;;;;;;5027286;28;19917;-75
2023/09/04 11:54:53;;;;;;;;;;;;;;;;;;5026106;28;19913;-75
2023/09/04 11:57:19;;;;;;;;;;;;;;;;;;5024416;28;19913;-74
2023/09/04 11:59:44;;;;;;;;;;;;;;;;;;5025243;28;19915;-75
2023/09/04 12:02:09;;;;;;;;;;;;;;;;;;5024507;28;21281;-76
2023/09/04 12:04:34;;;;;;;;;;;;;;;;;;5040755;28;19935;-76
2023/09/04 12:06:59;;;;;;;;;;;;;;;;;;5027135;28;20403;-77
2023/09/04 12:09:25;;;;;;;;;;;;;;;;;;5026061;28;19920;-75
2023/09/04 12:11:50;;;;;;;;;;;;;;;;;;5025950;28;19913;-76
2023/09/04 12:14:15;;;;;;;;;;;;;;;;;;5023698;28;20560;-74
2023/09/04 12:16:41;;;;;;;;;;;;;;;;;;5026878;28;19912;-76
2023/09/04 12:19:06;;;;;;;;;;;;;;;;;;5040548;28;20327;-74
2023/09/04 12:21:32;;;;;;;;;;;;;;;;;;5023390;28;19909;-76
2023/09/04 12:23:58;;;;;;;;;;;;;;;;;;5025315;28;20228;-77
2023/09/04 12:26:23;;;;;;;;;;;;;;;;;;5024768;28;19943;-75
2023/09/04 12:28:48;;;;;;;;;;;;;;;;;;5022595;28;20054;-75
2023/09/04 12:31:15;;;;;;;;;;;;;;;;;;5023568;28;20358;-74
2023/09/04 12:33:40;;;;;;;;;;;;;;;;;;5021973;28;19932;-75
2023/09/04 12:36:06;;;;;;;;;;;;;;;;;;5021534;28;19971;-76
2023/09/04 12:38:32;;;;;;;;;;;;;;;;;;5019933;28;20236;-74
2023/09/04 12:40:57;;;;;;;;;;;;;;;;;;5023699;28;19913;-75
2023/09/04 12:43:22;;;;;;;;;;;;;;;;;;5021334;28;19975;-77
2023/09/04 12:45:47;;;;;;;;;;;;;;;;;;5022560;28;19913;-75
2023/09/04 12:48:12;;;;;;;;;;;;;;;;;;5036749;28;19964;-75
2023/09/04 12:50:38;;;;;;;;;;;;;;;;;;5020633;28;20401;-77
2023/09/04 12:53:03;;;;;;;;;;;;;;;;;;5023809;28;20023;-75
2023/09/04 12:55:28;;;;;;;;;;;;;;;;;;5025455;28;19951;-75
2023/09/04 12:57:53;;;;;;;;;;;;;;;;;;5023516;28;19965;-76
2023/09/04 13:00:18;;;;;;;;;;;;;;;;;;5024985;28;19917;-76
2023/09/04 13:02:44;;;;;;;;;;;;;;;;;;5037271;28;19960;-76
2023/09/04 13:05:09;;;;;;;;;;;;;;;;;;5018292;28;19923;-76
2023/09/04 13:07:34;;;;;;;;;;;;;;;;;;5019967;28;19982;-75
2023/09/04 13:10:00;;;;;;;;;;;;;;;;;;5019489;28;20269;-76
2023/09/04 13:12:25;;;;;;;;;;;;;;;;;;5022993;28;20022;-76
2023/09/04 13:14:51;;;;;;;;;;;;;;;;;;5024056;28;19935;-77
2023/09/04 13:17:16;;;;;;;;;;;;;;;;;;5021715;28;19919;-76
2023/09/04 13:19:41;;;;;;;;;;;;;;;;;;5020056;28;20335;-76
2023/09/04 13:22:07;;;;;;;;;;;;;;;;;;5021431;28;19917;-77
2023/09/04 13:24:32;;;;;;;;;;;;;;;;;;5032684;28;19912;-79
2023/09/04 13:26:57;;;;;;;;;;;;;;;;;;5022610;28;19946;-77
2023/09/04 13:29:22;;;;;;;;;;;;;;;;;;5022803;28;20055;-77
2023/09/04 13:31:47;;;;;;;;;;;;;;;;;;5047038;28;20324;-80
2023/09/04 13:34:12;;;;;;;;;;;;;;;;;;5024936;28;19924;-76
2023/09/04 13:36:38;;;;;;;;;;;;;;;;;;5022127;28;19919;-77
2023/09/04 13:39:03;;;;;;;;;;;;;;;;;;5018570;28;19959;-78
2023/09/04 13:41:28;;;;;;;;;;;;;;;;;;5021011;28;19913;-76
2023/09/04 13:43:55;;;;;;;;;;;;;;;;;;5023804;28;19947;-75
2023/09/04 13:46:21;;;;;;;;;;;;;;;;;;5029778;28;19925;-77
2023/09/04 13:48:46;;;;;;;;;;;;;;;;;;5024945;28;19932;-75
2023/09/04 13:51:12;;;;;;;;;;;;;;;;;;5025491;28;19912;-74
2023/09/04 13:53:37;;;;;;;;;;;;;;;;;;5032942;28;20693;-79
2023/09/04 13:56:03;;;;;;;;;;;;;;;;;;5040034;28;19917;-74
2023/09/04 13:58:28;;;;;;;;;;;;;;;;;;5042067;28;19920;-75
2023/09/04 14:00:53;;;;;;;;;;;;;;;;;;5025713;28;19912;-74
2023/09/04 14:03:18;;;;;;;;;;;;;;;;;;5041707;28;19908;-75
2023/09/04 14:05:44;;;;;;;;;;;;;;;;;;5041915;28;20327;-80
2023/09/04 14:08:12;;;;;;;;;;;;;;;;;;5038371;28;20404;-76
2023/09/04 14:10:38;;;;;;;;;;;;;;;;;;5042170;28;19912;-76
2023/09/04 14:13:04;;;;;;;;;;;;;;;;;;5037631;28;19927;-76
2023/09/04 14:15:29;;;;;;;;;;;;;;;;;;5042690;28;19916;-77
2023/09/04 14:17:54;;;;;;;;;;;;;;;;;;5041972;28;21151;-78
2023/09/04 14:20:19;;;;;;;;;;;;;;;;;;5043178;28;20977;-78
2023/09/04 14:22:44;;;;;;;;;;;;;;;;;;5039485;28;19979;-77
2023/09/04 14:25:09;;;;;;;;;;;;;;;;;;5038246;28;19912;-77
2023/09/04 14:27:35;;;;;;;;;;;;;;;;;;5029521;28;19999;-76
2023/09/04 14:30:00;;;;;;;;;;;;;;;;;;5024415;28;19913;-79
2023/09/04 14:32:25;;;;;;;;;;;;;;;;;;5024339;28;20365;-78
2023/09/04 14:34:50;;;;;;;;;;;;;;;;;;5024562;28;19935;-78
2023/09/04 14:37:15;;;;;;;;;;;;;;;;;;5024411;28;19919;-80
2023/09/04 14:39:41;;;;;;;;;;;;;;;;;;5023210;28;19932;-76
2023/09/04 14:42:06;;;;;;;;;;;;;;;;;;5027305;28;19927;-78
2023/09/04 14:44:31;;;;;;;;;;;;;;;;;;5022895;28;19927;-79
2023/09/04 14:46:56;;;;;;;;;;;;;;;;;;5022987;28;19963;-76
2023/09/04 14:49:21;;;;;;;;;;;;;;;;;;5024255;28;19920;-76
2023/09/04 14:51:47;;;;;;;;;;;;;;;;;;5025414;28;19924;-76
2023/09/04 14:54:12;;;;;;;;;;;;;;;;;;5024996;28;20287;-77
2023/09/04 14:56:37;;;;;;;;;;;;;;;;;;5027009;28;20916;-76
2023/09/04 14:59:03;;;;;;;;;;;;;;;;;;5025016;28;20247;-72
2023/09/04 15:01:30;;;;;;;;;;;;;;;;;;5028350;28;19963;-75